sensor_id;sensor_type;location;lat;lon;timestamp;P1;durP1;ratioP1;P2;durP2;ratioP2
75914;SDS011;64593;51.050;13.780;2022-12-07T06:20:05;10.25;;;4.40;;
75914;SDS011;64593;51.050;13.780;2022-12-07T06:25:07;7.63;;;4.03;;
75914;SDS011;64593;51.050;13.780;2022-12-07T06:30:10;9.85;;;4.68;;
75914;SDS011;64593;51.050;13.780;2022-12-07T06:35:11;9.18;;;4.30;;
75914;SDS011;64593;51.050;13.780;2022-12-07T06:40:13;5.80;;;3.42;;
75914;SDS011;64593;51.050;13.780;2022-12-07T06:45:18;4.20;;;2.22;;
75914;SDS011;64593;51.050;13.780;2022-12-07T06:50:19;7.40;;;3.30;;
75914;SDS011;64593;51.050;13.780;2022-12-07T06:55:21;5.15;;;3.22;;
75914;SDS011;64593;51.050;13.780;2022-12-07T07:00:23;6.93;;;3.42;;
75914;SDS011;64593;51.050;13.780;2022-12-07T07:05:25;3.85;;;2.08;;
75914;SDS011;64593;51.050;13.780;2022-12-07T07:10:26;8.85;;;4.88;;
75914;SDS011;64593;51.050;13.780;2022-12-07T07:15:28;5.55;;;2.90;;
75914;SDS011;64593;51.050;13.780;2022-12-07T07:20:30;7.35;;;3.63;;
75914;SDS011;64593;51.050;13.780;2022-12-07T07:25:32;8.90;;;4.30;;
75914;SDS011;64593;51.050;13.780;2022-12-07T07:30:34;8.10;;;4.57;;
75914;SDS011;64593;51.050;13.780;2022-12-07T07:35:36;9.95;;;5.38;;
75914;SDS011;64593;51.050;13.780;2022-12-07T07:40:38;8.23;;;4.68;;
75914;SDS011;64593;51.050;13.780;2022-12-07T07:45:40;8.73;;;4.68;;
75914;SDS011;64593;51.050;13.780;2022-12-07T07:50:42;8.68;;;4.32;;
75914;SDS011;64593;51.050;13.780;2022-12-07T07:55:53;5.93;;;3.28;;
75914;SDS011;64593;51.050;13.780;2022-12-07T08:00:55;7.13;;;3.72;;
75914;SDS011;64593;51.050;13.780;2022-12-07T08:05:57;18.17;;;5.05;;
75914;SDS011;64593;51.050;13.780;2022-12-07T08:10:59;10.20;;;5.95;;
75914;SDS011;64593;51.050;13.780;2022-12-07T08:16:03;12.55;;;6.20;;
75914;SDS011;64593;51.050;13.780;2022-12-07T08:21:07;13.50;;;7.53;;
75914;SDS011;64593;51.050;13.780;2022-12-07T08:26:13;8.40;;;5.32;;
75914;SDS011;64593;51.050;13.780;2022-12-07T08:31:17;12.85;;;7.10;;
75914;SDS011;64593;51.050;13.780;2022-12-07T08:36:20;10.77;;;6.13;;
75914;SDS011;64593;51.050;13.780;2022-12-07T08:41:24;6.90;;;3.90;;
75914;SDS011;64593;51.050;13.780;2022-12-07T08:51:36;11.52;;;6.32;;
75914;SDS011;64593;51.050;13.780;2022-12-07T08:56:37;13.40;;;6.30;;
75914;SDS011;64593;51.050;13.780;2022-12-07T09:01:40;14.85;;;4.43;;
75914;SDS011;64593;51.050;13.780;2022-12-07T09:06:42;3.47;;;2.28;;
75914;SDS011;64593;51.050;13.780;2022-12-07T09:11:55;4.65;;;2.85;;
75914;SDS011;64593;51.050;13.780;2022-12-07T09:17:09;7.38;;;4.47;;
75914;SDS011;64593;51.050;13.780;2022-12-07T09:22:14;8.32;;;4.82;;
75914;SDS011;64593;51.050;13.780;2022-12-07T09:27:35;9.35;;;4.60;;
75914;SDS011;64593;51.050;13.780;2022-12-07T09:32:57;7.28;;;3.78;;
75914;SDS011;64593;51.050;13.780;2022-12-07T09:37:59;6.65;;;3.80;;
75914;SDS011;64593;51.050;13.780;2022-12-07T09:43:01;6.85;;;3.55;;
75914;SDS011;64593;51.050;13.780;2022-12-07T09:48:03;12.60;;;4.60;;
75914;SDS011;64593;51.050;13.780;2022-12-07T09:53:08;7.40;;;4.25;;
75914;SDS011;64593;51.050;13.780;2022-12-07T09:58:16;7.90;;;3.40;;
75914;SDS011;64593;51.050;13.780;2022-12-07T10:03:27;9.55;;;4.07;;
75914;SDS011;64593;51.050;13.780;2022-12-07T10:08:30;7.90;;;3.88;;
75914;SDS011;64593;51.050;13.780;2022-12-07T10:13:54;9.52;;;3.00;;
75914;SDS011;64593;51.050;13.780;2022-12-07T10:19:19;7.78;;;3.42;;
75914;SDS011;64593;51.050;13.780;2022-12-07T10:24:29;7.07;;;3.67;;
75914;SDS011;64593;51.050;13.780;2022-12-07T10:29:34;7.10;;;3.80;;
75914;SDS011;64593;51.050;13.780;2022-12-07T10:34:38;6.13;;;3.03;;
75914;SDS011;64593;51.050;13.780;2022-12-07T10:39:47;8.68;;;4.40;;
75914;SDS011;64593;51.050;13.780;2022-12-07T11:01:24;6.20;;;3.65;;
75914;SDS011;64593;51.050;13.780;2022-12-07T11:06:58;11.27;;;3.97;;
75914;SDS011;64593;51.050;13.780;2022-12-07T11:22:50;14.85;;;2.78;;
75914;SDS011;64593;51.050;13.780;2022-12-07T11:38:53;8.48;;;4.40;;
75914;SDS011;64593;51.050;13.780;2022-12-07T11:43:59;7.70;;;3.40;;
75914;SDS011;64593;51.050;13.780;2022-12-07T11:49:11;7.22;;;3.10;;
75914;SDS011;64593;51.050;13.780;2022-12-07T11:54:36;7.80;;;4.38;;
75914;SDS011;64593;51.050;13.780;2022-12-07T11:59:44;14.18;;;5.57;;
75914;SDS011;64593;51.050;13.780;2022-12-07T12:21:27;14.75;;;6.95;;
75914;SDS011;64593;51.050;13.780;2022-12-07T12:26:31;11.77;;;6.18;;
75914;SDS011;64593;51.050;13.780;2022-12-07T12:31:40;14.85;;;7.20;;
75914;SDS011;64593;51.050;13.780;2022-12-07T12:36:44;21.52;;;8.15;;
75914;SDS011;64593;51.050;13.780;2022-12-07T12:52:00;6.88;;;2.78;;
75914;SDS011;64593;51.050;13.780;2022-12-07T13:02:33;2.63;;;1.40;;
75914;SDS011;64593;51.050;13.780;2022-12-07T13:28:38;4.38;;;1.65;;
75914;SDS011;64593;51.050;13.780;2022-12-07T13:34:01;2.20;;;1.52;;
75914;SDS011;64593;51.050;13.780;2022-12-07T13:44:16;3.28;;;2.30;;
75914;SDS011;64593;51.050;13.780;2022-12-07T13:54:27;8.07;;;2.90;;
75914;SDS011;64593;51.050;13.780;2022-12-07T13:59:29;9.85;;;3.83;;
75914;SDS011;64593;51.050;13.780;2022-12-07T14:04:37;7.22;;;4.35;;
75914;SDS011;64593;51.050;13.780;2022-12-07T14:15:01;10.52;;;4.30;;
75914;SDS011;64593;51.050;13.780;2022-12-07T14:20:27;7.45;;;4.25;;
75914;SDS011;64593;51.050;13.780;2022-12-07T14:25:44;7.10;;;4.00;;
75914;SDS011;64593;51.050;13.780;2022-12-07T14:30:51;7.57;;;4.22;;
75914;SDS011;64593;51.050;13.780;2022-12-07T14:35:53;10.85;;;4.35;;
75914;SDS011;64593;51.050;13.780;2022-12-07T14:40:56;7.68;;;4.70;;
75914;SDS011;64593;51.050;13.780;2022-12-07T14:46:18;14.30;;;5.35;;
75914;SDS011;64593;51.050;13.780;2022-12-07T14:51:20;11.38;;;5.90;;
75914;SDS011;64593;51.050;13.780;2022-12-07T14:56:42;13.95;;;6.00;;
75914;SDS011;64593;51.050;13.780;2022-12-07T15:02:03;14.75;;;5.35;;
75914;SDS011;64593;51.050;13.780;2022-12-07T15:07:08;10.27;;;5.60;;
75914;SDS011;64593;51.050;13.780;2022-12-07T15:12:12;13.80;;;5.80;;
75914;SDS011;64593;51.050;13.780;2022-12-07T15:17:14;9.63;;;4.80;;
75914;SDS011;64593;51.050;13.780;2022-12-07T15:22:28;6.85;;;3.40;;
75914;SDS011;64593;51.050;13.780;2022-12-07T15:27:56;4.45;;;2.40;;
75914;SDS011;64593;51.050;13.780;2022-12-07T15:32:58;5.03;;;2.20;;
75914;SDS011;64593;51.050;13.780;2022-12-07T15:38:00;4.80;;;2.08;;
75914;SDS011;64593;51.050;13.780;2022-12-07T15:43:03;9.07;;;2.40;;
75914;SDS011;64593;51.050;13.780;2022-12-07T15:48:05;4.30;;;1.55;;
75914;SDS011;64593;51.050;13.780;2022-12-07T15:53:26;10.52;;;2.67;;
75914;SDS011;64593;51.050;13.780;2022-12-07T15:58:28;8.88;;;3.85;;
75914;SDS011;64593;51.050;13.780;2022-12-07T16:03:30;6.45;;;3.50;;
75914;SDS011;64593;51.050;13.780;2022-12-07T16:08:34;9.15;;;3.15;;
75914;SDS011;64593;51.050;13.780;2022-12-07T16:13:37;7.72;;;2.58;;
75914;SDS011;64593;51.050;13.780;2022-12-07T16:18:41;5.20;;;2.60;;
75914;SDS011;64593;51.050;13.780;2022-12-07T16:23:44;10.57;;;3.05;;
75914;SDS011;64593;51.050;13.780;2022-12-07T16:28:48;9.43;;;3.55;;
75914;SDS011;64593;51.050;13.780;2022-12-07T16:33:51;5.63;;;3.40;;
75914;SDS011;64593;51.050;13.780;2022-12-07T16:38:55;11.80;;;4.03;;
75914;SDS011;64593;51.050;13.780;2022-12-07T16:43:56;7.40;;;3.03;;
75914;SDS011;64593;51.050;13.780;2022-12-07T16:48:58;6.93;;;2.80;;
75914;SDS011;64593;51.050;13.780;2022-12-07T16:54:00;8.65;;;2.95;;
75914;SDS011;64593;51.050;13.780;2022-12-07T16:59:03;7.88;;;2.38;;
75914;SDS011;64593;51.050;13.780;2022-12-07T17:04:05;7.43;;;2.20;;
75914;SDS011;64593;51.050;13.780;2022-12-07T17:09:08;5.38;;;2.00;;
75914;SDS011;64593;51.050;13.780;2022-12-07T17:14:11;5.65;;;1.90;;
75914;SDS011;64593;51.050;13.780;2022-12-07T17:19:31;5.07;;;1.63;;
75914;SDS011;64593;51.050;13.780;2022-12-07T17:24:51;3.55;;;1.27;;
75914;SDS011;64593;51.050;13.780;2022-12-07T17:30:11;4.78;;;1.60;;
75914;SDS011;64593;51.050;13.780;2022-12-07T17:35:14;2.70;;;1.17;;
75914;SDS011;64593;51.050;13.780;2022-12-07T17:40:15;5.55;;;2.03;;
75914;SDS011;64593;51.050;13.780;2022-12-07T17:45:17;4.10;;;1.80;;
75914;SDS011;64593;51.050;13.780;2022-12-07T17:50:19;7.95;;;2.13;;
75914;SDS011;64593;51.050;13.780;2022-12-07T17:55:41;4.03;;;1.77;;
75914;SDS011;64593;51.050;13.780;2022-12-07T18:01:07;3.95;;;1.77;;
75914;SDS011;64593;51.050;13.780;2022-12-07T18:06:10;4.35;;;2.03;;
75914;SDS011;64593;51.050;13.780;2022-12-07T18:11:12;7.70;;;2.03;;
75914;SDS011;64593;51.050;13.780;2022-12-07T18:16:15;5.97;;;2.20;;
75914;SDS011;64593;51.050;13.780;2022-12-07T18:21:23;6.35;;;2.30;;
75914;SDS011;64593;51.050;13.780;2022-12-07T18:26:30;5.60;;;2.55;;
75914;SDS011;64593;51.050;13.780;2022-12-07T18:31:35;7.20;;;1.85;;
75914;SDS011;64593;51.050;13.780;2022-12-07T18:36:56;3.03;;;1.13;;
75914;SDS011;64593;51.050;13.780;2022-12-07T18:42:16;5.68;;;1.38;;
75914;SDS011;64593;51.050;13.780;2022-12-07T18:47:18;3.97;;;1.85;;
75914;SDS011;64593;51.050;13.780;2022-12-07T18:52:20;3.63;;;1.67;;
75914;SDS011;64593;51.050;13.780;2022-12-07T18:57:22;8.52;;;1.80;;
75914;SDS011;64593;51.050;13.780;2022-12-07T19:02:24;5.13;;;1.50;;
75914;SDS011;64593;51.050;13.780;2022-12-07T19:07:26;7.30;;;1.52;;
75914;SDS011;64593;51.050;13.780;2022-12-07T19:12:28;6.32;;;1.38;;
75914;SDS011;64593;51.050;13.780;2022-12-07T19:17:34;9.77;;;1.52;;
75914;SDS011;64593;51.050;13.780;2022-12-07T19:22:37;7.30;;;1.70;;
75914;SDS011;64593;51.050;13.780;2022-12-07T19:27:39;3.65;;;1.60;;
75914;SDS011;64593;51.050;13.780;2022-12-07T19:32:40;5.25;;;2.00;;
75914;SDS011;64593;51.050;13.780;2022-12-07T19:37:42;5.20;;;2.63;;
75914;SDS011;64593;51.050;13.780;2022-12-07T19:43:03;9.73;;;2.20;;
75914;SDS011;64593;51.050;13.780;2022-12-07T19:48:07;8.70;;;3.28;;
75914;SDS011;64593;51.050;13.780;2022-12-07T19:53:15;6.53;;;2.80;;
75914;SDS011;64593;51.050;13.780;2022-12-07T19:58:17;5.70;;;2.67;;
75914;SDS011;64593;51.050;13.780;2022-12-07T20:03:19;9.05;;;3.70;;
75914;SDS011;64593;51.050;13.780;2022-12-07T20:08:22;8.02;;;2.70;;
75914;SDS011;64593;51.050;13.780;2022-12-07T20:13:26;6.13;;;2.47;;
75914;SDS011;64593;51.050;13.780;2022-12-07T20:18:33;5.78;;;2.50;;
75914;SDS011;64593;51.050;13.780;2022-12-07T20:23:37;6.68;;;2.25;;
75914;SDS011;64593;51.050;13.780;2022-12-07T20:28:44;9.18;;;2.55;;
75914;SDS011;64593;51.050;13.780;2022-12-07T20:33:47;5.57;;;2.40;;
75914;SDS011;64593;51.050;13.780;2022-12-07T20:38:49;9.05;;;3.00;;
75914;SDS011;64593;51.050;13.780;2022-12-07T20:44:12;6.03;;;2.30;;
75914;SDS011;64593;51.050;13.780;2022-12-07T20:49:15;10.73;;;2.90;;
75914;SDS011;64593;51.050;13.780;2022-12-07T20:54:18;4.38;;;2.33;;
75914;SDS011;64593;51.050;13.780;2022-12-07T20:59:23;7.40;;;2.03;;
75914;SDS011;64593;51.050;13.780;2022-12-07T21:04:25;10.20;;;3.20;;
75914;SDS011;64593;51.050;13.780;2022-12-07T21:09:28;5.53;;;2.20;;
75914;SDS011;64593;51.050;13.780;2022-12-07T21:14:48;8.73;;;3.15;;
75914;SDS011;64593;51.050;13.780;2022-12-07T21:19:50;7.47;;;2.40;;
75914;SDS011;64593;51.050;13.780;2022-12-07T21:25:11;7.40;;;3.25;;
75914;SDS011;64593;51.050;13.780;2022-12-07T21:30:15;7.10;;;2.60;;
75914;SDS011;64593;51.050;13.780;2022-12-07T21:35:20;13.10;;;3.63;;
75914;SDS011;64593;51.050;13.780;2022-12-07T21:40:26;6.55;;;3.10;;
75914;SDS011;64593;51.050;13.780;2022-12-07T21:45:28;5.47;;;2.38;;
75914;SDS011;64593;51.050;13.780;2022-12-07T21:50:32;4.90;;;1.73;;
75914;SDS011;64593;51.050;13.780;2022-12-07T21:55:39;6.15;;;2.78;;
75914;SDS011;64593;51.050;13.780;2022-12-07T22:00:44;6.55;;;2.30;;
75914;SDS011;64593;51.050;13.780;2022-12-07T22:05:58;7.20;;;2.13;;
75914;SDS011;64593;51.050;13.780;2022-12-07T22:11:01;7.07;;;2.38;;
75914;SDS011;64593;51.050;13.780;2022-12-07T22:16:03;7.40;;;2.13;;
75914;SDS011;64593;51.050;13.780;2022-12-07T22:21:10;10.55;;;2.75;;
75914;SDS011;64593;51.050;13.780;2022-12-07T22:26:32;6.97;;;2.70;;
75914;SDS011;64593;51.050;13.780;2022-12-07T22:31:44;9.38;;;2.95;;
75914;SDS011;64593;51.050;13.780;2022-12-07T22:36:59;8.90;;;2.63;;
75914;SDS011;64593;51.050;13.780;2022-12-07T22:42:19;6.40;;;2.63;;
75914;SDS011;64593;51.050;13.780;2022-12-07T22:47:21;7.85;;;2.95;;
75914;SDS011;64593;51.050;13.780;2022-12-07T22:52:23;9.63;;;2.63;;
75914;SDS011;64593;51.050;13.780;2022-12-07T22:57:25;10.98;;;3.17;;
